createdAt,value
2018-05-11T00:00:08.794Z,0
2018-05-11T00:01:08.535Z,0
2018-05-11T00:02:08.786Z,0
2018-05-11T00:03:08.815Z,0
2018-05-11T00:04:08.524Z,0
2018-05-11T00:05:08.523Z,0
2018-05-11T00:06:08.536Z,0
2018-05-11T00:07:09.058Z,0
2018-05-11T00:08:09.009Z,0
2018-05-11T00:09:08.766Z,0
2018-05-11T00:10:08.793Z,0
2018-05-11T00:11:08.788Z,0
2018-05-11T00:12:08.988Z,0
2018-05-11T00:13:08.777Z,0
2018-05-11T00:14:08.736Z,0
2018-05-11T00:15:08.511Z,0
2018-05-11T00:16:08.714Z,0
2018-05-11T00:17:08.737Z,0
2018-05-11T00:18:08.747Z,0
2018-05-11T00:19:08.956Z,0
2018-05-11T00:20:08.965Z,0
2018-05-11T00:21:08.718Z,0
2018-05-11T00:22:08.717Z,0
2018-05-11T00:23:08.465Z,0
2018-05-11T00:24:08.682Z,0
2018-05-11T00:25:08.712Z,0
2018-05-11T00:26:08.678Z,0
2018-05-11T00:27:08.708Z,0
2018-05-11T00:28:08.662Z,0
2018-05-11T00:29:08.432Z,0
2018-05-11T00:30:08.953Z,0
2018-05-11T00:31:08.653Z,0
2018-05-11T00:32:08.168Z,0
2018-05-11T00:33:08.213Z,0
2018-05-11T00:34:08.414Z,0
2018-05-11T00:35:08.648Z,0
2018-05-11T00:36:08.655Z,0
2018-05-11T00:37:08.139Z,0
2018-05-11T00:38:08.650Z,0
2018-05-11T00:39:08.658Z,0
2018-05-11T00:40:08.895Z,0
2018-05-11T00:41:08.887Z,0
2018-05-11T00:42:08.596Z,0
2018-05-11T00:43:08.894Z,0
2018-05-11T00:44:08.088Z,0
2018-05-11T00:45:08.371Z,0
2018-05-11T00:46:08.855Z,0
2018-05-11T00:47:08.703Z,0
2018-05-11T00:48:08.592Z,0
2018-05-11T00:49:08.607Z,0
2018-05-11T00:50:08.582Z,0
2018-05-11T00:51:09.243Z,0
2018-05-11T00:52:08.593Z,0
2018-05-11T00:53:08.316Z,0
2018-05-11T00:54:08.565Z,0
2018-05-11T00:55:08.844Z,0
2018-05-11T00:56:08.542Z,0
2018-05-11T00:57:08.818Z,0
2018-05-11T00:58:08.798Z,0
2018-05-11T00:59:08.565Z,0
2018-05-11T01:00:08.811Z,0
2018-05-11T01:01:08.826Z,0
2018-05-11T01:02:08.528Z,0
2018-05-11T01:03:08.555Z,0
2018-05-11T01:04:08.786Z,0
2018-05-11T01:05:08.537Z,0
2018-05-11T01:06:08.514Z,0
2018-05-11T01:07:08.791Z,0
2018-05-11T01:08:08.786Z,0
2018-05-11T01:09:08.505Z,0
2018-05-11T01:10:08.250Z,0
2018-05-11T01:11:08.489Z,0
2018-05-11T01:12:08.771Z,0
2018-05-11T01:13:08.486Z,0
2018-05-11T01:14:08.788Z,0
2018-05-11T01:15:08.713Z,0
2018-05-11T01:16:08.773Z,0
2018-05-11T01:17:09.003Z,0
2018-05-11T01:18:08.485Z,0
2018-05-11T01:19:08.182Z,0
2018-05-11T01:20:08.473Z,0
2018-05-11T01:21:08.449Z,0
2018-05-11T01:22:08.442Z,0
2018-05-11T01:23:08.723Z,0
2018-05-11T01:24:08.711Z,0
2018-05-11T01:25:08.684Z,0
2018-05-11T01:26:08.675Z,0
2018-05-11T01:27:08.145Z,0
2018-05-11T01:28:08.176Z,0
2018-05-11T01:29:08.409Z,0
2018-05-11T01:30:08.452Z,0
2018-05-11T01:31:08.638Z,0
2018-05-11T01:32:07.899Z,0
2018-05-11T01:33:08.384Z,0
2018-05-11T01:34:08.661Z,0
2018-05-11T01:35:08.625Z,0
2018-05-11T01:36:08.403Z,0
2018-05-11T01:37:08.646Z,0
2018-05-11T01:38:08.390Z,0
2018-05-11T01:39:08.091Z,0
2018-05-11T01:40:08.095Z,0
2018-05-11T01:41:08.365Z,0
2018-05-11T01:42:08.360Z,0
2018-05-11T01:43:08.370Z,0
2018-05-11T01:44:08.078Z,0
2018-05-11T01:45:08.341Z,0
2018-05-11T01:46:08.343Z,0
2018-05-11T01:47:08.580Z,0
2018-05-11T01:48:08.343Z,0
2018-05-11T01:49:08.304Z,0
2018-05-11T01:50:08.075Z,0
2018-05-11T01:51:08.541Z,0
2018-05-11T01:52:08.326Z,0
2018-05-11T01:53:08.321Z,0
2018-05-11T01:54:08.562Z,0
2018-05-11T01:55:08.524Z,0
2018-05-11T01:56:08.021Z,0
2018-05-11T01:57:08.031Z,0
2018-05-11T01:58:08.547Z,0
2018-05-11T01:59:08.001Z,0
2018-05-11T02:00:08.025Z,0
2018-05-11T02:01:08.255Z,0
2018-05-11T02:02:08.024Z,0
2018-05-11T02:03:08.489Z,0
2018-05-11T02:04:08.274Z,0
2018-05-11T02:05:08.236Z,0
2018-05-11T02:06:08.507Z,0
2018-05-11T02:07:08.212Z,0
2018-05-11T02:08:08.251Z,0
2018-05-11T02:09:07.976Z,0
2018-05-11T02:10:08.491Z,0
2018-05-11T02:11:08.450Z,0
2018-05-11T02:12:08.229Z,0
2018-05-11T02:13:08.198Z,0
2018-05-11T02:14:07.683Z,0
2018-05-11T02:15:08.179Z,0
2018-05-11T02:16:08.467Z,0
2018-05-11T02:17:08.189Z,0
2018-05-11T02:18:08.462Z,0
2018-05-11T02:19:08.417Z,0
2018-05-11T02:20:08.451Z,0
2018-05-11T02:21:08.397Z,0
2018-05-11T02:22:08.171Z,0
2018-05-11T02:23:08.136Z,0
2018-05-11T02:24:08.433Z,0
2018-05-11T02:25:08.158Z,0
2018-05-11T02:26:08.626Z,0
2018-05-11T02:27:08.122Z,0
2018-05-11T02:28:08.116Z,0
2018-05-11T02:29:07.885Z,0
2018-05-11T02:30:07.879Z,0
2018-05-11T02:31:08.157Z,0
2018-05-11T02:32:08.101Z,0
2018-05-11T02:33:08.384Z,0
2018-05-11T02:34:08.105Z,0
2018-05-11T02:35:08.399Z,0
2018-05-11T02:36:08.082Z,0
2018-05-11T02:37:08.379Z,0
2018-05-11T02:38:08.358Z,0
2018-05-11T02:39:08.074Z,0
2018-05-11T02:40:08.378Z,0
2018-05-11T02:41:08.331Z,0
2018-05-11T02:42:08.341Z,0
2018-05-11T02:43:08.310Z,0
2018-05-11T02:44:08.042Z,0
2018-05-11T02:45:08.322Z,0
2018-05-11T02:46:08.346Z,0
2018-05-11T02:47:08.076Z,0
2018-05-11T02:48:08.032Z,4
2018-05-11T02:49:08.037Z,0
2018-05-11T02:50:07.763Z,4
2018-05-11T02:51:08.309Z,8
2018-05-11T02:52:08.290Z,4
2018-05-11T02:53:08.303Z,8
2018-05-11T02:54:07.749Z,8
2018-05-11T02:55:07.765Z,8
2018-05-11T02:56:07.728Z,12
2018-05-11T02:57:08.249Z,12
2018-05-11T02:58:07.720Z,16
2018-05-11T02:59:08.032Z,20
2018-05-11T03:00:08.057Z,20
2018-05-11T03:01:08.238Z,24
2018-05-11T03:02:07.706Z,24
2018-05-11T03:03:08.274Z,24
2018-05-11T03:04:07.948Z,24
2018-05-11T03:05:08.231Z,28
2018-05-11T03:06:08.185Z,24
2018-05-11T03:07:07.972Z,24
2018-05-11T03:08:08.217Z,20
2018-05-11T03:09:08.215Z,24
2018-05-11T03:10:07.925Z,24
2018-05-11T03:11:08.304Z,28
2018-05-11T03:12:07.894Z,32
2018-05-11T03:13:07.905Z,40
2018-05-11T03:14:07.642Z,48
2018-05-11T03:15:07.926Z,48
2018-05-11T03:16:08.173Z,52
2018-05-11T03:17:08.142Z,56
2018-05-11T03:18:08.129Z,56
2018-05-11T03:19:08.113Z,52
2018-05-11T03:20:08.168Z,56
2018-05-11T03:21:07.864Z,64
2018-05-11T03:22:07.890Z,64
2018-05-11T03:23:08.096Z,72
2018-05-11T03:24:07.872Z,72
2018-05-11T03:25:08.083Z,76
2018-05-11T03:26:08.118Z,80
2018-05-11T03:27:07.563Z,80
2018-05-11T03:28:07.593Z,80
2018-05-11T03:29:07.826Z,80
2018-05-11T03:30:07.815Z,88
2018-05-11T03:31:08.105Z,92
2018-05-11T03:32:07.573Z,104
2018-05-11T03:33:08.060Z,104
2018-05-11T03:34:08.044Z,108
2018-05-11T03:35:07.774Z,100
2018-05-11T03:36:07.820Z,92
2018-05-11T03:37:07.780Z,80
2018-05-11T03:38:07.544Z,80
2018-05-11T03:39:07.754Z,80
2018-05-11T03:40:07.531Z,88
2018-05-11T03:41:07.763Z,92
2018-05-11T03:42:08.009Z,96
2018-05-11T03:43:07.865Z,100
2018-05-11T03:44:07.980Z,104
2018-05-11T03:45:07.994Z,96
2018-05-11T03:46:07.989Z,96
2018-05-11T03:47:08.021Z,96
2018-05-11T03:48:08.080Z,96
2018-05-11T03:49:07.985Z,100
2018-05-11T03:50:07.711Z,108
2018-05-11T03:51:07.440Z,112
2018-05-11T03:52:07.990Z,124
2018-05-11T03:53:07.965Z,136
2018-05-11T03:54:07.697Z,156
2018-05-11T03:55:07.979Z,160
2018-05-11T03:56:07.416Z,160
2018-05-11T03:57:07.960Z,164
2018-05-11T03:58:07.956Z,192
2018-05-11T03:59:07.952Z,236
2018-05-11T04:00:08.104Z,260
2018-05-11T04:01:07.662Z,264
2018-05-11T04:02:07.393Z,272
2018-05-11T04:03:07.931Z,292
2018-05-11T04:04:07.922Z,288
2018-05-11T04:05:07.891Z,308
2018-05-11T04:06:07.886Z,308
2018-05-11T04:07:07.624Z,332
2018-05-11T04:08:07.652Z,396
2018-05-11T04:09:07.623Z,424
2018-05-11T04:10:07.635Z,440
2018-05-11T04:11:07.404Z,452
2018-05-11T04:12:07.624Z,484
2018-05-11T04:13:07.970Z,508
2018-05-11T04:14:07.652Z,560
2018-05-11T04:15:07.313Z,612
2018-05-11T04:16:07.609Z,672
2018-05-11T04:17:07.590Z,784
2018-05-11T04:18:07.326Z,880
2018-05-11T04:19:07.552Z,920
2018-05-11T04:20:07.579Z,868
2018-05-11T04:21:07.302Z,840
2018-05-11T04:22:07.799Z,856
2018-05-11T04:23:07.017Z,876
2018-05-11T04:24:07.566Z,872
2018-05-11T04:25:07.796Z,920
2018-05-11T04:26:07.815Z,972
2018-05-11T04:27:07.501Z,964
2018-05-11T04:28:07.803Z,1004
2018-05-11T04:29:07.744Z,1092
2018-05-11T04:30:07.051Z,1216
2018-05-11T04:31:06.973Z,1444
2018-05-11T04:32:07.783Z,1648
2018-05-11T04:33:07.501Z,1924
2018-05-11T04:34:07.751Z,1840
2018-05-11T04:35:07.537Z,1616
2018-05-11T04:36:07.460Z,1580
2018-05-11T04:37:07.735Z,1512
2018-05-11T04:38:07.476Z,1424
2018-05-11T04:39:07.738Z,1512
2018-05-11T04:40:07.441Z,1756
2018-05-11T04:41:07.453Z,1720
2018-05-11T04:42:07.678Z,1848
2018-05-11T04:43:07.461Z,1824
2018-05-11T04:44:07.674Z,1812
2018-05-11T04:45:07.695Z,1836
2018-05-11T04:46:07.699Z,1948
2018-05-11T04:47:07.664Z,1816
2018-05-11T04:48:07.694Z,1988
2018-05-11T04:49:07.668Z,1936
2018-05-11T04:50:07.672Z,1676
2018-05-11T04:51:07.379Z,1624
2018-05-11T04:52:07.629Z,1524
2018-05-11T04:53:07.393Z,1392
2018-05-11T04:54:07.648Z,1396
2018-05-11T04:55:07.400Z,1348
2018-05-11T04:56:07.099Z,1372
2018-05-11T04:57:07.372Z,1444
2018-05-11T04:58:07.596Z,1580
2018-05-11T04:59:07.636Z,1444
2018-05-11T05:00:07.085Z,1428
2018-05-11T05:01:07.626Z,1412
2018-05-11T05:02:07.587Z,1464
2018-05-11T05:03:07.628Z,1428
2018-05-11T05:04:07.561Z,1404
2018-05-11T05:05:07.573Z,1444
2018-05-11T05:06:07.061Z,1528
2018-05-11T05:07:07.596Z,1620
2018-05-11T05:08:06.808Z,1720
2018-05-11T05:09:07.551Z,1712
2018-05-11T05:10:07.292Z,1900
2018-05-11T05:11:07.579Z,2212
2018-05-11T05:12:07.273Z,2396
2018-05-11T05:13:07.542Z,2312
2018-05-11T05:14:07.262Z,2372
2018-05-11T05:15:07.549Z,2284
2018-05-11T05:16:07.251Z,2172
2018-05-11T05:17:07.544Z,2008
2018-05-11T05:18:07.248Z,1892
2018-05-11T05:19:07.753Z,1960
2018-05-11T05:20:07.235Z,2112
2018-05-11T05:21:07.240Z,2144
2018-05-11T05:22:06.979Z,2252
2018-05-11T05:23:07.519Z,2116
2018-05-11T05:24:07.497Z,2180
2018-05-11T05:25:07.212Z,2488
2018-05-11T05:26:07.455Z,2436
2018-05-11T05:27:07.439Z,2544
2018-05-11T05:28:07.166Z,2472
2018-05-11T05:29:07.453Z,2444
2018-05-11T05:30:07.214Z,2120
2018-05-11T05:31:07.421Z,1920
2018-05-11T05:32:07.197Z,1980
2018-05-11T05:33:07.665Z,1856
2018-05-11T05:34:07.463Z,1844
2018-05-11T05:35:07.144Z,1836
2018-05-11T05:36:07.180Z,1720
2018-05-11T05:37:07.457Z,1800
2018-05-11T05:38:07.397Z,1984
2018-05-11T05:39:07.527Z,2148
2018-05-11T05:40:07.159Z,2172
2018-05-11T05:41:07.130Z,2328
2018-05-11T05:42:07.392Z,2504
2018-05-11T05:43:07.358Z,2528
2018-05-11T05:44:07.140Z,2548
2018-05-11T05:45:07.366Z,2740
2018-05-11T05:46:07.397Z,3000
2018-05-11T05:47:07.371Z,2960
2018-05-11T05:48:06.861Z,2876
2018-05-11T05:49:07.325Z,2864
2018-05-11T05:50:07.364Z,3088
2018-05-11T05:51:07.360Z,3176
2018-05-11T05:52:07.349Z,3208
2018-05-11T05:53:07.339Z,3184
2018-05-11T05:54:07.429Z,3596
2018-05-11T05:55:07.388Z,3600
2018-05-11T05:56:06.795Z,3296
2018-05-11T05:57:07.313Z,3588
2018-05-11T05:58:07.059Z,4148
2018-05-11T05:59:07.331Z,3952
2018-05-11T06:00:07.573Z,3352
2018-05-11T06:01:07.312Z,3328
2018-05-11T06:02:07.314Z,3752
2018-05-11T06:03:07.276Z,4160
2018-05-11T06:04:07.050Z,4268
2018-05-11T06:05:07.333Z,4488
2018-05-11T06:06:07.284Z,4220
2018-05-11T06:07:07.237Z,4268
2018-05-11T06:08:07.365Z,4460
2018-05-11T06:09:07.014Z,4224
2018-05-11T06:10:06.739Z,4176
2018-05-11T06:11:06.968Z,4336
2018-05-11T06:12:06.965Z,4104
2018-05-11T06:13:07.237Z,3168
2018-05-11T06:14:06.730Z,2716
2018-05-11T06:15:07.248Z,2680
2018-05-11T06:16:06.949Z,2556
2018-05-11T06:17:07.222Z,2424
2018-05-11T06:18:07.188Z,2524
2018-05-11T06:19:07.228Z,2616
2018-05-11T06:20:06.946Z,2548
2018-05-11T06:21:06.710Z,2688
2018-05-11T06:22:07.590Z,3196
2018-05-11T06:23:07.219Z,3556
2018-05-11T06:24:06.958Z,4164
2018-05-11T06:25:07.175Z,5000
2018-05-11T06:26:07.174Z,5800
2018-05-11T06:27:07.197Z,6300
2018-05-11T06:28:06.899Z,6892
2018-05-11T06:29:07.182Z,7932
2018-05-11T06:30:07.167Z,8840
2018-05-11T06:31:07.176Z,9044
2018-05-11T06:32:06.877Z,8896
2018-05-11T06:33:06.889Z,8800
2018-05-11T06:34:06.866Z,7884
2018-05-11T06:35:06.897Z,7128
2018-05-11T06:36:06.854Z,6060
2018-05-11T06:37:07.153Z,6132
2018-05-11T06:38:07.108Z,6048
2018-05-11T06:39:06.883Z,4832
2018-05-11T06:40:07.086Z,4364
2018-05-11T06:41:07.112Z,4436
2018-05-11T06:42:07.093Z,4436
2018-05-11T06:43:06.613Z,4572
2018-05-11T06:44:07.117Z,5420
2018-05-11T06:45:06.572Z,5724
2018-05-11T06:46:06.406Z,6088
2018-05-11T06:47:06.806Z,5816
2018-05-11T06:48:06.839Z,5612
2018-05-11T06:49:07.069Z,5428
2018-05-11T06:50:06.832Z,5664
2018-05-11T06:51:07.039Z,5580
2018-05-11T06:52:07.077Z,5692
2018-05-11T06:53:07.046Z,5900
2018-05-11T06:54:06.529Z,5348
2018-05-11T06:55:06.816Z,5384
2018-05-11T06:56:07.036Z,5312
2018-05-11T06:57:06.786Z,5448
2018-05-11T06:58:06.773Z,5540
2018-05-11T06:59:07.055Z,5332
2018-05-11T07:00:07.067Z,5320
2018-05-11T07:01:07.098Z,5656
2018-05-11T07:02:06.752Z,5620
2018-05-11T07:03:06.985Z,5236
2018-05-11T07:04:07.025Z,5068
2018-05-11T07:05:06.737Z,5332
2018-05-11T07:06:06.482Z,5404
2018-05-11T07:07:06.765Z,5044
2018-05-11T07:08:07.249Z,5148
2018-05-11T07:09:07.020Z,5440
2018-05-11T07:10:07.001Z,5844
2018-05-11T07:11:06.743Z,6388
2018-05-11T07:12:06.972Z,6032
2018-05-11T07:13:06.712Z,6144
2018-05-11T07:14:06.712Z,6744
2018-05-11T07:15:06.725Z,7876
2018-05-11T07:16:06.461Z,8956
2018-05-11T07:17:06.445Z,8932
2018-05-11T07:18:07.025Z,8732
2018-05-11T07:19:06.976Z,8448
2018-05-11T07:20:06.674Z,8916
2018-05-11T07:21:06.429Z,9728
2018-05-11T07:22:06.929Z,10596
2018-05-11T07:23:06.704Z,11516
2018-05-11T07:24:06.660Z,11556
2018-05-11T07:25:06.948Z,12176
2018-05-11T07:26:06.659Z,12616
2018-05-11T07:27:06.677Z,12580
2018-05-11T07:28:06.910Z,12712
2018-05-11T07:29:06.690Z,11748
2018-05-11T07:30:06.696Z,10860
2018-05-11T07:31:06.939Z,10164
2018-05-11T07:32:06.928Z,9948
2018-05-11T07:33:06.891Z,9288
2018-05-11T07:34:06.899Z,8272
2018-05-11T07:35:07.235Z,8268
2018-05-11T07:36:06.644Z,8428
2018-05-11T07:37:06.869Z,8568
2018-05-11T07:38:06.641Z,8836
2018-05-11T07:39:06.859Z,9548
2018-05-11T07:40:06.889Z,10244
2018-05-11T07:41:06.595Z,10388
2018-05-11T07:42:06.615Z,10196
2018-05-11T07:43:06.721Z,9780
2018-05-11T07:44:06.914Z,9412
2018-05-11T07:45:06.598Z,9236
2018-05-11T07:46:06.835Z,8720
2018-05-11T07:47:06.357Z,7848
2018-05-11T07:48:06.610Z,7336
2018-05-11T07:49:06.576Z,7096
2018-05-11T07:50:06.847Z,7116
2018-05-11T07:51:06.297Z,7512
2018-05-11T07:52:06.589Z,7972
2018-05-11T07:53:06.050Z,8032
2018-05-11T07:54:06.612Z,7712
2018-05-11T07:55:06.537Z,7372
2018-05-11T07:56:06.314Z,7264
2018-05-11T07:57:06.538Z,7552
2018-05-11T07:58:06.567Z,7592
2018-05-11T07:59:06.524Z,7184
2018-05-11T08:00:06.573Z,6732
2018-05-11T08:01:06.819Z,6692
2018-05-11T08:02:06.547Z,6860
2018-05-11T08:03:06.764Z,6744
2018-05-11T08:04:07.274Z,6812
2018-05-11T08:05:06.546Z,6980
2018-05-11T08:06:06.527Z,7080
2018-05-11T08:07:06.549Z,6900
2018-05-11T08:08:06.499Z,6936
2018-05-11T08:09:06.513Z,6944
2018-05-11T08:10:06.531Z,6740
2018-05-11T08:11:06.260Z,6536
2018-05-11T08:12:06.529Z,6576
2018-05-11T08:13:06.487Z,6732
2018-05-11T08:14:06.598Z,6628
2018-05-11T08:15:06.769Z,6404
2018-05-11T08:16:06.524Z,6384
2018-05-11T08:17:07.008Z,6616
2018-05-11T08:18:06.753Z,6808
2018-05-11T08:19:06.487Z,6876
2018-05-11T08:20:06.459Z,6852
2018-05-11T08:21:06.744Z,6836
2018-05-11T08:22:06.293Z,6804
2018-05-11T08:23:06.251Z,6844
2018-05-11T08:24:06.458Z,7084
2018-05-11T08:25:06.756Z,7332
2018-05-11T08:26:06.698Z,7576
2018-05-11T08:27:06.319Z,8104
2018-05-11T08:28:06.444Z,8460
2018-05-11T08:29:06.726Z,8344
2018-05-11T08:30:06.443Z,8164
2018-05-11T08:31:06.204Z,8148
2018-05-11T08:32:06.422Z,8188
2018-05-11T08:33:06.430Z,8176
2018-05-11T08:34:06.428Z,8232
2018-05-11T08:35:06.206Z,8268
2018-05-11T08:36:06.425Z,8128
2018-05-11T08:37:06.451Z,8144
2018-05-11T08:38:06.448Z,8080
2018-05-11T08:39:06.695Z,7992
2018-05-11T08:40:06.407Z,8148
2018-05-11T08:41:06.426Z,8392
2018-05-11T08:42:06.641Z,8556
2018-05-11T08:43:06.699Z,8596
2018-05-11T08:44:06.391Z,8672
2018-05-11T08:45:06.427Z,9132
2018-05-11T08:46:06.391Z,10092
2018-05-11T08:47:06.700Z,11228
2018-05-11T08:48:06.397Z,12200
2018-05-11T08:49:06.656Z,12752
2018-05-11T08:50:06.660Z,13020
2018-05-11T08:51:06.624Z,13372
2018-05-11T08:52:06.387Z,13340
2018-05-11T08:53:06.384Z,12780
2018-05-11T08:54:06.376Z,12520
2018-05-11T08:55:06.695Z,13116
2018-05-11T08:56:06.355Z,14212
2018-05-11T08:57:06.720Z,15008
2018-05-11T08:58:06.341Z,14912
2018-05-11T08:59:06.393Z,14700
2018-05-11T09:00:06.343Z,15244
2018-05-11T09:01:06.363Z,15324
2018-05-11T09:02:06.358Z,14052
2018-05-11T09:03:06.687Z,12576
2018-05-11T09:04:06.624Z,11932
2018-05-11T09:05:06.599Z,11820
2018-05-11T09:06:06.646Z,11940
2018-05-11T09:07:06.062Z,11764
2018-05-11T09:08:06.575Z,10808
2018-05-11T09:09:06.600Z,10292
2018-05-11T09:10:06.395Z,10152
2018-05-11T09:11:06.355Z,10304
2018-05-11T09:12:06.317Z,10384
2018-05-11T09:13:06.323Z,10132
2018-05-11T09:14:06.299Z,9668
2018-05-11T09:15:06.608Z,9396
2018-05-11T09:16:06.303Z,9340
2018-05-11T09:17:06.596Z,9156
2018-05-11T09:18:06.560Z,8768
2018-05-11T09:19:06.337Z,8088
2018-05-11T09:20:06.319Z,7428
2018-05-11T09:21:06.319Z,7208
2018-05-11T09:22:06.544Z,7416
2018-05-11T09:23:06.066Z,7776
2018-05-11T09:24:06.328Z,7916
2018-05-11T09:25:06.084Z,7704
2018-05-11T09:26:06.345Z,7276
2018-05-11T09:27:06.589Z,7052
2018-05-11T09:28:06.281Z,7180
2018-05-11T09:29:06.294Z,7564
2018-05-11T09:30:06.289Z,8112
2018-05-11T09:31:06.335Z,8632
2018-05-11T09:32:06.525Z,9044
2018-05-11T09:33:06.584Z,9360
2018-05-11T09:34:06.528Z,9576
2018-05-11T09:35:06.571Z,9512
2018-05-11T09:36:06.516Z,9200
2018-05-11T09:37:06.522Z,8940
2018-05-11T09:38:06.263Z,8936
2018-05-11T09:39:06.565Z,9172
2018-05-11T09:40:06.290Z,9524
2018-05-11T09:41:06.266Z,10196
2018-05-11T09:42:06.257Z,11580
2018-05-11T09:43:06.245Z,13640
2018-05-11T09:44:06.276Z,14896
2018-05-11T09:45:06.256Z,14056
2018-05-11T09:46:06.285Z,12820
2018-05-11T09:47:05.992Z,12216
2018-05-11T09:48:06.012Z,11916
2018-05-11T09:49:06.584Z,12140
2018-05-11T09:50:06.265Z,13044
2018-05-11T09:51:06.221Z,14144
2018-05-11T09:52:06.255Z,15364
2018-05-11T09:53:06.490Z,16768
2018-05-11T09:54:05.978Z,17472
2018-05-11T09:55:06.382Z,18880
2018-05-11T09:56:06.259Z,20960
2018-05-11T09:57:06.230Z,21920
2018-05-11T09:58:05.968Z,22944
2018-05-11T09:59:06.212Z,23456
2018-05-11T10:00:06.252Z,23008
2018-05-11T10:01:06.231Z,21728
2018-05-11T10:02:06.252Z,19520
2018-05-11T10:03:06.198Z,17024
2018-05-11T10:04:06.245Z,15108
2018-05-11T10:05:06.202Z,14436
2018-05-11T10:06:06.221Z,14688
2018-05-11T10:07:06.472Z,15268
2018-05-11T10:08:06.488Z,14640
2018-05-11T10:09:06.225Z,13440
2018-05-11T10:10:06.232Z,13384
2018-05-11T10:11:06.192Z,14592
2018-05-11T10:12:06.447Z,16000
2018-05-11T10:13:06.207Z,16800
2018-05-11T10:14:06.236Z,17504
2018-05-11T10:15:06.499Z,17600
2018-05-11T10:16:06.450Z,16672
2018-05-11T10:17:06.682Z,15088
2018-05-11T10:18:06.493Z,14444
2018-05-11T10:19:06.193Z,14368
2018-05-11T10:20:06.230Z,15008
2018-05-11T10:21:06.434Z,16512
2018-05-11T10:22:06.532Z,17824
2018-05-11T10:23:06.179Z,18304
2018-05-11T10:24:06.220Z,17632
2018-05-11T10:25:05.952Z,16832
2018-05-11T10:26:06.474Z,16832
2018-05-11T10:27:06.455Z,17216
2018-05-11T10:28:05.947Z,17504
2018-05-11T10:29:06.446Z,17536
2018-05-11T10:30:05.958Z,16704
2018-05-11T10:31:06.434Z,15316
2018-05-11T10:32:06.481Z,14436
2018-05-11T10:33:06.198Z,13908
2018-05-11T10:34:06.488Z,13160
2018-05-11T10:35:06.439Z,12060
2018-05-11T10:36:06.234Z,11032
2018-05-11T10:37:06.426Z,10244
2018-05-11T10:38:05.944Z,9928
2018-05-11T10:39:06.429Z,10516
2018-05-11T10:40:06.255Z,11476
2018-05-11T10:41:06.208Z,12244
2018-05-11T10:42:06.474Z,12432
2018-05-11T10:43:06.447Z,12108
2018-05-11T10:44:05.971Z,11748
2018-05-11T10:45:05.946Z,11580
2018-05-11T10:46:06.517Z,11692
2018-05-11T10:47:06.175Z,12064
2018-05-11T10:48:06.239Z,12696
2018-05-11T10:49:06.197Z,13484
2018-05-11T10:50:06.480Z,14040
2018-05-11T10:51:06.439Z,14492
2018-05-11T10:52:06.206Z,14896
2018-05-11T10:53:06.190Z,15012
2018-05-11T10:54:06.273Z,15076
2018-05-11T10:55:06.212Z,15024
2018-05-11T10:56:06.225Z,14832
2018-05-11T10:57:05.929Z,14568
2018-05-11T10:58:06.220Z,13916
2018-05-11T10:59:06.428Z,12772
2018-05-11T11:00:05.913Z,11460
2018-05-11T11:01:06.189Z,10440
2018-05-11T11:02:06.460Z,10040
2018-05-11T11:03:06.210Z,10044
2018-05-11T11:04:06.185Z,10336
2018-05-11T11:05:06.451Z,10552
2018-05-11T11:06:06.418Z,10380
2018-05-11T11:07:05.942Z,9940
2018-05-11T11:08:06.014Z,9104
2018-05-11T11:09:06.443Z,8092
2018-05-11T11:10:06.186Z,7496
2018-05-11T11:11:05.911Z,7612
2018-05-11T11:12:06.204Z,8096
2018-05-11T11:13:06.195Z,8712
2018-05-11T11:14:06.467Z,9084
2018-05-11T11:15:05.906Z,9052
2018-05-11T11:16:06.413Z,8728
2018-05-11T11:17:06.196Z,8260
2018-05-11T11:18:06.182Z,8032
2018-05-11T11:19:06.269Z,8200
2018-05-11T11:20:06.766Z,8276
2018-05-11T11:21:06.174Z,8584
2018-05-11T11:22:06.422Z,9128
2018-05-11T11:23:06.189Z,9544
2018-05-11T11:24:06.158Z,9832
2018-05-11T11:25:06.203Z,9996
2018-05-11T11:26:06.500Z,10132
2018-05-11T11:27:05.933Z,10344
2018-05-11T11:28:06.161Z,10396
2018-05-11T11:29:06.412Z,10196
2018-05-11T11:30:06.153Z,9928
2018-05-11T11:31:06.187Z,9840
2018-05-11T11:32:06.169Z,9912
2018-05-11T11:33:06.414Z,10060
2018-05-11T11:34:06.413Z,10312
2018-05-11T11:35:06.439Z,10600
2018-05-11T11:36:06.399Z,10828
2018-05-11T11:37:06.436Z,10948
2018-05-11T11:38:06.394Z,10868
2018-05-11T11:39:06.435Z,10908
2018-05-11T11:40:06.127Z,11112
2018-05-11T11:41:06.662Z,11196
2018-05-11T11:42:06.646Z,10996
2018-05-11T11:43:06.175Z,10864
2018-05-11T11:44:06.140Z,10752
2018-05-11T11:45:06.416Z,10484
2018-05-11T11:46:06.400Z,10288
2018-05-11T11:47:06.153Z,10192
2018-05-11T11:48:06.429Z,10172
2018-05-11T11:49:05.869Z,10444
2018-05-11T11:50:06.122Z,10980
2018-05-11T11:51:06.128Z,11332
2018-05-11T11:52:06.421Z,11504
2018-05-11T11:53:06.396Z,11644
2018-05-11T11:54:06.406Z,11780
2018-05-11T11:55:06.382Z,11704
2018-05-11T11:56:06.416Z,11484
2018-05-11T11:57:06.363Z,11208
2018-05-11T11:58:06.403Z,10944
2018-05-11T11:59:05.840Z,10808
2018-05-11T12:00:06.403Z,10768
2018-05-11T12:01:06.119Z,10700
2018-05-11T12:02:06.378Z,10416
2018-05-11T12:03:06.414Z,10208
2018-05-11T12:04:06.134Z,10172
2018-05-11T12:05:05.862Z,10224
2018-05-11T12:06:06.363Z,10560
2018-05-11T12:07:06.369Z,10980
2018-05-11T12:08:06.413Z,11112
2018-05-11T12:09:06.764Z,10880
2018-05-11T12:10:06.394Z,10320
2018-05-11T12:11:06.091Z,9532
2018-05-11T12:12:06.413Z,8744
2018-05-11T12:13:06.104Z,8296
2018-05-11T12:14:06.372Z,8116
2018-05-11T12:15:06.101Z,8184
2018-05-11T12:16:06.372Z,8288
2018-05-11T12:17:05.849Z,8360
2018-05-11T12:18:06.357Z,8368
2018-05-11T12:19:06.342Z,8296
2018-05-11T12:20:06.394Z,8320
2018-05-11T12:21:05.834Z,8464
2018-05-11T12:22:06.361Z,8480
2018-05-11T12:23:06.383Z,8384
2018-05-11T12:24:06.330Z,8408
2018-05-11T12:25:06.344Z,8516
2018-05-11T12:26:06.352Z,8684
2018-05-11T12:27:06.311Z,8872
2018-05-11T12:28:06.356Z,8980
2018-05-11T12:29:06.058Z,8884
2018-05-11T12:30:06.078Z,8756
2018-05-11T12:31:06.047Z,8576
2018-05-11T12:32:06.352Z,8260
2018-05-11T12:33:06.331Z,8112
2018-05-11T12:34:06.345Z,8468
2018-05-11T12:35:06.087Z,9220
2018-05-11T12:36:05.791Z,9908
2018-05-11T12:37:06.067Z,10408
2018-05-11T12:38:06.323Z,10852
2018-05-11T12:39:06.333Z,11420
2018-05-11T12:40:06.303Z,11976
2018-05-11T12:41:06.438Z,12256
2018-05-11T12:42:06.301Z,12304
2018-05-11T12:43:06.332Z,12756
2018-05-11T12:44:06.285Z,13728
2018-05-11T12:45:06.330Z,14440
2018-05-11T12:46:06.295Z,14784
2018-05-11T12:47:05.816Z,15392
2018-05-11T12:48:06.273Z,15960
2018-05-11T12:49:06.034Z,16416
2018-05-11T12:50:05.778Z,16608
2018-05-11T12:51:06.061Z,17024
2018-05-11T12:52:06.022Z,17632
2018-05-11T12:53:06.232Z,18048
2018-05-11T12:54:06.049Z,18240
2018-05-11T12:55:06.071Z,18208
2018-05-11T12:56:06.019Z,17824
2018-05-11T12:57:06.290Z,17120
2018-05-11T12:58:06.009Z,16640
2018-05-11T12:59:06.049Z,16608
2018-05-11T13:00:06.014Z,16928
2018-05-11T13:01:06.315Z,17536
2018-05-11T13:02:06.035Z,17824
2018-05-11T13:03:06.047Z,17600
2018-05-11T13:04:06.271Z,16928
2018-05-11T13:05:06.301Z,16028
2018-05-11T13:06:06.026Z,15232
2018-05-11T13:07:05.804Z,14568
2018-05-11T13:08:06.396Z,14056
2018-05-11T13:09:06.032Z,13740
2018-05-11T13:10:05.765Z,13648
2018-05-11T13:11:06.013Z,13692
2018-05-11T13:12:06.314Z,13820
2018-05-11T13:13:06.458Z,14112
2018-05-11T13:14:06.102Z,14384
2018-05-11T13:15:05.750Z,14480
2018-05-11T13:16:05.802Z,14316
2018-05-11T13:17:05.792Z,13932
2018-05-11T13:18:06.272Z,13188
2018-05-11T13:19:06.068Z,12472
2018-05-11T13:20:06.021Z,12184
2018-05-11T13:21:05.787Z,12416
2018-05-11T13:22:06.288Z,12920
2018-05-11T13:23:06.306Z,13268
2018-05-11T13:24:06.521Z,13176
2018-05-11T13:25:06.322Z,12816
2018-05-11T13:26:06.301Z,12480
2018-05-11T13:27:06.019Z,12216
2018-05-11T13:28:05.791Z,11960
2018-05-11T13:29:06.036Z,11772
2018-05-11T13:30:06.057Z,11580
2018-05-11T13:31:06.026Z,11356
2018-05-11T13:32:06.356Z,11092
2018-05-11T13:33:06.006Z,10748